Time;durP1;ratioP1;P1;durP2;ratioP2;P2;SDS_P1;SDS_P2;PMS_P1;PMS_P2;Temp;Humidity;BMP_temperature;BMP_pressure;BME280_temperature;BME280_humidity;BME280_pressure;Samples;Min_cycle;Max_cycle;Signal;HPM_P1;HPM_P2
2022/03/17 00:01:17;;;;;;;26.10;20.17;;;11.00;99.90;;;;;;5097214;28;20039;-78
2022/03/17 00:03:43;;;;;;;30.30;21.43;;;10.90;99.90;;;;;;5096628;28;20127;-76
2022/03/17 00:06:10;;;;;;;31.23;20.17;;;11.00;99.90;;;;;;5102037;28;20040;-76
2022/03/17 00:08:38;;;;;;;32.40;20.93;;;11.00;99.90;;;;;;5073290;28;20032;-77
2022/03/17 00:11:03;;;;;;;30.73;20.23;;;11.00;99.90;;;;;;5100403;28;20108;-78
2022/03/17 00:13:32;;;;;;;30.83;21.03;;;10.90;99.90;;;;;;5069525;28;20418;-78
2022/03/17 00:15:57;;;;;;;33.80;21.90;;;10.90;99.90;;;;;;5096523;28;20040;-79
2022/03/17 00:18:23;;;;;;;31.63;21.23;;;10.90;99.90;;;;;;5100801;28;20055;-76
2022/03/17 00:20:49;;;;;;;28.33;21.00;;;10.90;99.90;;;;;;5093465;28;20055;-77
2022/03/17 00:23:15;;;;;;;30.13;21.90;;;10.90;99.90;;;;;;5085295;28;20496;-75
2022/03/17 00:25:42;;;;;;;33.00;21.53;;;10.90;99.90;;;;;;5077199;28;20039;-77
2022/03/17 00:28:08;;;;;;;31.27;22.17;;;10.90;99.90;;;;;;5081534;28;20047;-79
2022/03/17 00:30:35;;;;;;;29.70;22.20;;;10.90;99.90;;;;;;5079572;28;20040;-77
2022/03/17 00:33:01;;;;;;;32.10;21.67;;;10.80;99.90;;;;;;5095481;28;20047;-76
2022/03/17 00:35:35;;;;;;;29.37;22.67;;;10.90;99.90;;;;;;5084078;28;20044;-76
2022/03/17 00:38:02;;;;;;;31.87;22.93;;;10.80;99.90;;;;;;5094732;28;20126;-77
2022/03/17 00:40:28;;;;;;;33.60;22.53;;;10.80;99.90;;;;;;5099622;28;20555;-77
2022/03/17 00:42:55;;;;;;;34.17;22.73;;;10.80;99.90;;;;;;5094210;28;20046;-82
2022/03/17 00:45:21;;;;;;;30.40;22.63;;;10.80;99.90;;;;;;5082204;28;20063;-78
2022/03/17 00:47:47;;;;;;;27.53;21.73;;;10.80;99.90;;;;;;5083925;28;20047;-76
2022/03/17 00:50:13;;;;;;;31.23;22.43;;;10.80;99.90;;;;;;5092843;28;20044;-77
2022/03/17 00:52:39;;;;;;;33.23;22.80;;;10.70;99.90;;;;;;5100430;28;20043;-77
2022/03/17 00:55:06;;;;;;;32.03;22.57;;;10.70;99.90;;;;;;5093964;28;20052;-77
2022/03/17 00:57:33;;;;;;;33.67;23.40;;;10.80;99.90;;;;;;5094065;28;20052;-77
2022/03/17 01:00:00;;;;;;;32.63;22.77;;;10.70;99.90;;;;;;5091190;28;20059;-77
2022/03/17 01:02:25;;;;;;;31.17;22.10;;;10.70;99.90;;;;;;5099363;28;20058;-78
2022/03/17 01:04:52;;;;;;;31.97;22.93;;;10.70;99.90;;;;;;5076153;28;20487;-78
2022/03/17 01:07:18;;;;;;;32.20;23.10;;;10.70;99.90;;;;;;5094135;28;20071;-78
2022/03/17 01:09:44;;;;;;;33.20;22.47;;;10.70;99.90;;;;;;5077795;28;20084;-76
2022/03/17 01:12:10;;;;;;;28.13;21.40;;;10.70;99.90;;;;;;5071793;28;20044;-77
2022/03/17 01:14:35;;;;;;;31.93;22.77;;;10.70;99.90;;;;;;5078089;28;20040;-77
2022/03/17 01:17:03;;;;;;;29.60;22.53;;;10.70;99.90;;;;;;5081110;28;20414;-80
2022/03/17 01:19:29;;;;;;;28.83;22.43;;;10.70;99.90;;;;;;5078319;28;20077;-76
2022/03/17 01:21:55;;;;;;;31.57;22.87;;;10.70;99.90;;;;;;5080394;28;20094;-75
2022/03/17 01:24:20;;;;;;;30.03;22.10;;;10.70;99.90;;;;;;5079849;28;20514;-76
2022/03/17 01:26:46;;;;;;;28.90;22.43;;;10.60;99.90;;;;;;5100343;28;20036;-79
2022/03/17 01:29:12;;;;;;;31.20;22.27;;;10.60;99.90;;;;;;5078779;28;20347;-76
2022/03/17 01:31:39;;;;;;;30.77;22.40;;;10.60;99.90;;;;;;5082845;28;20067;-76
2022/03/17 01:34:06;;;;;;;29.80;22.63;;;10.60;99.90;;;;;;5103291;28;20066;-76
2022/03/17 01:36:32;;;;;;;30.80;22.40;;;10.60;99.90;;;;;;5083079;28;20040;-76
2022/03/17 01:38:57;;;;;;;30.60;22.63;;;10.60;99.90;;;;;;5099835;28;20040;-76
2022/03/17 01:41:23;;;;;;;31.43;22.70;;;10.60;99.90;;;;;;5080576;28;20032;-76
2022/03/17 01:43:49;;;;;;;30.53;22.57;;;10.60;99.90;;;;;;5102378;28;20559;-76
2022/03/17 01:46:16;;;;;;;40.10;23.93;;;10.60;99.90;;;;;;5085546;28;20044;-76
2022/03/17 01:48:42;;;;;;;31.83;23.17;;;10.60;99.90;;;;;;5096918;28;20036;-76
2022/03/17 01:51:10;;;;;;;30.97;22.53;;;10.60;99.90;;;;;;5100032;28;20439;-75
2022/03/17 01:53:37;;;;;;;30.63;21.90;;;10.60;99.90;;;;;;5092524;28;20049;-75
2022/03/17 01:56:04;;;;;;;33.60;22.60;;;10.60;99.90;;;;;;5102751;28;20047;-77
2022/03/17 01:58:31;;;;;;;29.80;21.60;;;10.50;99.90;;;;;;5100231;28;20107;-76
2022/03/17 02:00:57;;;;;;;31.43;23.50;;;10.50;99.90;;;;;;5084660;28;20070;-78
2022/03/17 02:03:23;;;;;;;27.67;22.20;;;10.60;99.90;;;;;;5086107;28;20522;-77
2022/03/17 02:05:51;;;;;;;32.63;23.70;;;10.60;99.90;;;;;;5097300;28;20055;-75
2022/03/17 02:08:18;;;;;;;32.87;22.90;;;10.60;99.90;;;;;;5103430;28;20040;-79
2022/03/17 02:13:28;;;;;;;34.63;23.25;;;10.50;99.90;;;;;;5102859;28;20047;-76
2022/03/17 02:15:55;;;;;;;34.97;24.33;;;10.50;99.90;;;;;;5081103;28;20048;-77
2022/03/17 02:18:21;;;;;;;31.03;23.50;;;10.50;99.90;;;;;;5100252;28;20048;-76
2022/03/17 02:20:48;;;;;;;30.97;24.20;;;10.40;99.90;;;;;;5088848;28;20043;-78
2022/03/17 02:26:02;;;;;;;34.23;24.33;;;10.40;99.90;;;;;;5104161;28;20060;-79
2022/03/17 02:28:30;;;;;;;30.87;23.87;;;10.40;99.90;;;;;;5081686;28;20062;-79
2022/03/17 02:30:56;;;;;;;33.00;23.53;;;10.40;99.90;;;;;;5103364;28;20040;-76
2022/03/17 02:33:23;;;;;;;29.90;23.20;;;10.40;99.90;;;;;;5087595;28;20040;-77
2022/03/17 02:35:51;;;;;;;33.53;24.20;;;10.30;99.90;;;;;;5095873;28;20052;-76
2022/03/17 02:38:19;;;;;;;31.57;23.53;;;10.30;99.90;;;;;;5094136;28;20063;-74
2022/03/17 02:40:48;;;;;;;32.83;24.13;;;10.30;99.90;;;;;;5061291;28;20087;-77
2022/03/17 02:43:14;;;;;;;32.37;24.47;;;10.30;99.90;;;;;;5081176;28;20079;-78
2022/03/17 02:45:41;;;;;;;32.00;24.20;;;10.30;99.90;;;;;;5087437;28;20039;-82
2022/03/17 02:48:08;;;;;;;32.73;24.97;;;10.40;99.90;;;;;;5096154;28;20092;-76
2022/03/17 02:50:35;;;;;;;34.33;24.37;;;10.40;99.90;;;;;;5103622;28;20043;-75
2022/03/17 02:53:05;;;;;;;31.80;24.60;;;10.40;99.90;;;;;;5098824;28;20051;-77
2022/03/17 02:55:33;;;;;;;32.30;23.90;;;10.40;99.90;;;;;;5103638;28;20058;-77
2022/03/17 02:57:58;;;;;;;31.83;24.13;;;10.40;99.90;;;;;;5099237;28;20067;-79
2022/03/17 03:00:24;;;;;;;31.40;24.13;;;10.40;99.90;;;;;;5084894;28;20067;-79
2022/03/17 03:02:50;;;;;;;32.13;23.63;;;10.40;99.90;;;;;;5098863;28;20587;-76
2022/03/17 03:05:15;;;;;;;31.90;24.17;;;10.40;99.90;;;;;;5097028;28;20110;-76
2022/03/17 03:07:41;;;;;;;34.00;24.87;;;10.40;99.90;;;;;;5100971;28;20048;-77
2022/03/17 03:10:08;;;;;;;35.47;25.17;;;10.40;99.90;;;;;;5097158;28;20035;-77
2022/03/17 03:12:35;;;;;;;31.53;24.80;;;10.50;99.90;;;;;;5101406;28;20071;-76
2022/03/17 03:15:01;;;;;;;34.77;25.00;;;10.40;99.90;;;;;;5081103;28;20074;-76
2022/03/17 03:17:27;;;;;;;31.60;24.67;;;10.40;99.90;;;;;;5077744;28;20410;-77
2022/03/17 03:19:53;;;;;;;33.47;25.00;;;10.40;99.90;;;;;;5100914;28;20040;-77
2022/03/17 03:22:19;;;;;;;32.63;24.67;;;10.50;99.90;;;;;;5093883;28;20111;-77
2022/03/17 03:24:45;;;;;;;33.57;24.47;;;10.50;99.90;;;;;;5086153;28;20043;-78
2022/03/17 03:27:11;;;;;;;32.43;24.87;;;10.50;99.90;;;;;;5087351;28;20063;-77
2022/03/17 03:29:38;;;;;;;30.67;24.43;;;10.50;99.90;;;;;;5097662;28;20028;-78
2022/03/17 03:32:05;;;;;;;32.87;24.17;;;10.50;99.90;;;;;;5103130;28;20055;-75
2022/03/17 03:34:32;;;;;;;31.77;24.30;;;10.50;99.90;;;;;;5098233;28;20126;-78
2022/03/17 03:39:43;;;;;;;30.00;24.57;;;10.60;99.90;;;;;;5101377;28;20056;-76
2022/03/17 03:42:10;;;;;;;33.47;25.60;;;10.60;99.90;;;;;;5103092;28;20127;-78
2022/03/17 03:44:38;;;;;;;34.03;24.83;;;10.60;99.90;;;;;;5104319;28;20071;-79
2022/03/17 03:47:04;;;;;;;29.87;24.17;;;10.60;99.90;;;;;;5096953;28;20048;-78
2022/03/17 03:49:30;;;;;;;34.30;25.00;;;10.70;99.90;;;;;;5085536;28;20056;-78
2022/03/17 03:51:56;;;;;;;36.73;25.63;;;10.70;99.90;;;;;;5095962;28;20059;-77
2022/03/17 03:54:22;;;;;;;32.10;25.70;;;10.70;99.90;;;;;;5101399;28;20044;-77
2022/03/17 03:56:50;;;;;;;31.53;25.43;;;10.70;99.90;;;;;;5097342;28;20050;-79
2022/03/17 03:59:21;;;;;;;35.43;26.57;;;10.80;99.90;;;;;;5077124;28;20518;-78
2022/03/17 04:01:49;;;;;;;30.23;25.40;;;10.80;99.90;;;;;;5081560;28;20089;-80
2022/03/17 04:04:19;;;;;;;35.73;25.97;;;10.80;99.90;;;;;;5109989;27;20116;-76
2022/03/17 04:06:46;;;;;;;33.77;26.03;;;10.80;99.90;;;;;;5080754;28;20051;-78
2022/03/17 04:09:13;;;;;;;32.00;25.57;;;10.80;99.90;;;;;;5092252;28;20089;-77
2022/03/17 04:11:39;;;;;;;32.00;25.90;;;10.90;99.90;;;;;;5099808;28;20028;-79
2022/03/17 04:14:05;;;;;;;32.93;26.67;;;10.90;99.90;;;;;;5094595;28;20078;-79
2022/03/17 04:16:31;;;;;;;30.70;25.67;;;10.90;99.90;;;;;;5097564;28;20085;-78
2022/03/17 04:18:58;;;;;;;32.33;26.03;;;10.90;99.90;;;;;;5083278;28;20039;-76
2022/03/17 04:21:24;;;;;;;35.47;27.87;;;10.90;99.90;;;;;;5075564;28;20047;-78
2022/03/17 04:23:50;;;;;;;31.27;26.47;;;10.90;99.90;;;;;;5082011;28;20514;-77
2022/03/17 04:26:16;;;;;;;38.50;29.60;;;10.90;99.90;;;;;;5069601;28;20567;-76
2022/03/17 04:28:42;;;;;;;36.33;29.53;;;10.90;99.90;;;;;;5092007;28;20164;-77
2022/03/17 04:31:07;;;;;;;43.10;29.33;;;10.80;99.90;;;;;;5095786;28;20047;-78
2022/03/17 04:33:33;;;;;;;39.90;31.03;;;10.80;99.90;;;;;;5068397;28;20448;-79
2022/03/17 04:36:01;;;;;;;43.13;32.63;;;10.80;99.90;;;;;;5074567;28;20048;-79
2022/03/17 04:38:27;;;;;;;43.50;32.57;;;10.70;99.90;;;;;;5089036;28;20470;-77
2022/03/17 04:40:52;;;;;;;44.80;33.60;;;10.60;99.90;;;;;;5098618;28;20036;-78
2022/03/17 04:43:18;;;;;;;46.50;35.40;;;10.50;99.90;;;;;;5058175;28;20333;-77
2022/03/17 04:45:44;;;;;;;47.57;36.03;;;10.50;99.90;;;;;;5073079;28;20040;-78
2022/03/17 04:48:10;;;;;;;49.83;38.30;;;10.40;99.90;;;;;;5079605;28;20048;-76
2022/03/17 04:50:36;;;;;;;52.80;39.27;;;10.40;99.90;;;;;;5078830;28;20044;-75
2022/03/17 04:55:48;;;;;;;56.67;42.43;;;10.20;99.90;;;;;;5093296;28;20040;-75
2022/03/17 04:58:14;;;;;;;60.73;44.70;;;10.20;99.90;;;;;;5096794;28;20411;-75
2022/03/17 05:00:41;;;;;;;63.43;45.77;;;10.10;99.90;;;;;;5089467;28;20032;-74
2022/03/17 05:03:07;;;;;;;68.93;46.17;;;10.10;99.90;;;;;;5091067;28;20558;-74
2022/03/17 05:05:33;;;;;;;63.90;45.37;;;10.10;99.90;;;;;;5074813;28;20044;-75
2022/03/17 05:07:58;;;;;;;74.57;47.83;;;10.00;99.90;;;;;;5084327;28;20048;-75
2022/03/17 05:10:28;;;;;;;68.60;46.67;;;10.00;99.90;;;;;;5091682;28;20044;-75
2022/03/17 05:12:54;;;;;;;80.43;48.33;;;10.00;99.90;;;;;;5062629;28;20051;-75
2022/03/17 05:15:20;;;;;;;76.50;49.67;;;10.00;99.90;;;;;;5090936;28;20044;-75
2022/03/17 05:17:47;;;;;;;75.67;48.17;;;10.00;99.90;;;;;;5074272;28;20392;-76
2022/03/17 05:20:13;;;;;;;68.23;43.10;;;10.00;99.90;;;;;;5089763;28;20044;-76
2022/03/17 05:22:39;;;;;;;50.13;33.67;;;10.00;99.90;;;;;;5062037;28;20040;-76
2022/03/17 05:25:06;;;;;;;26.97;19.37;;;10.00;99.90;;;;;;5057881;28;20049;-75
2022/03/17 05:27:35;;;;;;;14.17;10.97;;;10.00;99.90;;;;;;5060827;28;20529;-75
2022/03/17 05:30:03;;;;;;;12.57;9.57;;;9.90;99.90;;;;;;5060616;28;20098;-75
2022/03/17 05:32:28;;;;;;;10.60;7.97;;;9.70;99.90;;;;;;5101215;23;20503;-76
2022/03/17 05:34:54;;;;;;;9.60;7.87;;;9.60;99.90;;;;;;5094432;28;20052;-75
2022/03/17 05:37:20;;;;;;;11.00;8.37;;;9.40;99.90;;;;;;5075741;28;20043;-74
2022/03/17 05:39:45;;;;;;;10.87;8.40;;;9.30;99.90;;;;;;5075703;28;20118;-75
2022/03/17 05:42:12;;;;;;;9.50;8.47;;;9.20;99.90;;;;;;5119565;28;20105;-75
2022/03/17 05:44:39;;;;;;;10.20;8.30;;;9.10;99.90;;;;;;5096173;28;20044;-76
2022/03/17 05:47:05;;;;;;;9.53;8.53;;;9.10;99.90;;;;;;5061732;28;20304;-75
2022/03/17 05:49:31;;;;;;;12.37;9.20;;;9.10;99.90;;;;;;5077831;28;20036;-76
2022/03/17 05:51:57;;;;;;;14.10;9.60;;;9.00;99.90;;;;;;5092399;28;20046;-76
2022/03/17 05:54:23;;;;;;;17.63;11.50;;;8.90;99.90;;;;;;5093367;28;20071;-75
2022/03/17 05:56:48;;;;;;;16.23;11.00;;;8.90;99.90;;;;;;5076172;28;20072;-75
2022/03/17 05:59:14;;;;;;;14.77;10.93;;;8.80;99.90;;;;;;5078476;28;20074;-74
2022/03/17 06:01:41;;;;;;;17.23;10.80;;;8.70;99.90;;;;;;5094780;28;20048;-75
2022/03/17 06:04:06;;;;;;;18.50;10.63;;;8.70;99.90;;;;;;5076608;28;20449;-75
2022/03/17 06:06:32;;;;;;;20.07;11.50;;;8.60;99.90;;;;;;5078507;28;20057;-75
2022/03/17 06:08:58;;;;;;;20.43;11.73;;;8.60;99.90;;;;;;5092315;28;20422;-76
2022/03/17 06:11:24;;;;;;;20.80;11.87;;;8.60;99.90;;;;;;5093332;28;20063;-75
2022/03/17 06:13:49;;;;;;;23.93;12.57;;;8.60;99.90;;;;;;5072085;28;20043;-74
2022/03/17 06:16:15;;;;;;;20.20;10.80;;;8.50;99.90;;;;;;5092556;28;20108;-75
2022/03/17 06:18:42;;;;;;;21.13;11.20;;;8.50;99.90;;;;;;5080901;28;20039;-74
2022/03/17 06:21:08;;;;;;;24.33;11.27;;;8.50;99.90;;;;;;5085875;28;20112;-75
2022/03/17 06:23:33;;;;;;;21.00;10.73;;;8.50;99.90;;;;;;5118817;27;20043;-75
2022/03/17 06:25:59;;;;;;;17.17;10.27;;;8.50;99.90;;;;;;5065771;28;20494;-75
2022/03/17 06:28:25;;;;;;;21.07;10.47;;;8.50;99.90;;;;;;5089160;28;20444;-74
2022/03/17 06:30:51;;;;;;;22.17;10.27;;;8.50;99.90;;;;;;5083682;28;20122;-75
2022/03/17 06:33:17;;;;;;;19.27;9.03;;;8.50;99.90;;;;;;5082122;28;20043;-75
2022/03/17 06:35:44;;;;;;;18.80;8.90;;;8.50;99.90;;;;;;5076868;28;20065;-75
2022/03/17 06:38:10;;;;;;;21.60;8.93;;;8.50;99.90;;;;;;5121559;27;20054;-75
2022/03/17 06:40:36;;;;;;;22.67;8.80;;;8.50;99.90;;;;;;5091165;27;20660;-75
2022/03/17 06:43:02;;;;;;;14.83;9.13;;;8.50;99.90;;;;;;5071937;28;20609;-75
2022/03/17 06:45:28;;;;;;;16.43;7.53;;;8.50;99.90;;;;;;5126055;27;20067;-75
2022/03/17 06:47:54;;;;;;;19.83;7.63;;;8.50;99.90;;;;;;5077859;27;20123;-76
2022/03/17 06:50:21;;;;;;;15.63;6.83;;;8.50;99.90;;;;;;5105282;27;20569;-74
2022/03/17 06:52:49;;;;;;;19.37;7.07;;;8.50;99.90;;;;;;5079110;28;20577;-75
2022/03/17 06:55:15;;;;;;;15.80;6.70;;;8.50;99.90;;;;;;5091381;27;20673;-75
2022/03/17 06:57:41;;;;;;;16.47;6.73;;;8.50;99.90;;;;;;5097201;28;20039;-74
2022/03/17 07:00:10;;;;;;;17.47;6.40;;;8.40;99.90;;;;;;5104704;28;20051;-75
2022/03/17 07:02:36;;;;;;;18.07;6.60;;;8.40;99.90;;;;;;5089173;27;20058;-74
2022/03/17 07:05:02;;;;;;;17.53;6.30;;;8.40;99.90;;;;;;5094460;27;20039;-75
2022/03/17 07:07:27;;;;;;;18.47;7.00;;;8.40;99.90;;;;;;5098875;27;20506;-75
2022/03/17 07:09:55;;;;;;;16.67;5.87;;;8.40;99.90;;;;;;5124431;27;20074;-75
2022/03/17 07:12:21;;;;;;;13.07;5.07;;;8.40;99.90;;;;;;5106185;28;20127;-74
2022/03/17 07:14:47;;;;;;;19.10;5.10;;;8.40;99.90;;;;;;5090925;28;20502;-74
2022/03/17 07:17:13;;;;;;;15.03;4.27;;;8.40;99.90;;;;;;5108200;27;20047;-74
2022/03/17 07:19:38;;;;;;;12.13;3.67;;;8.40;99.90;;;;;;5082107;28;20057;-75
2022/03/17 07:22:05;;;;;;;14.83;3.40;;;8.40;99.90;;;;;;5117471;27;20081;-74
2022/03/17 07:24:30;;;;;;;15.40;3.67;;;8.40;99.90;;;;;;5100560;27;20141;-75
2022/03/17 07:27:00;;;;;;;17.30;4.00;;;8.40;99.90;;;;;;5065083;28;20051;-74
2022/03/17 07:29:28;;;;;;;12.23;3.00;;;8.40;99.90;;;;;;5119820;27;20039;-75
2022/03/17 07:31:56;;;;;;;11.37;2.77;;;8.40;99.90;;;;;;5074014;28;20043;-76
2022/03/17 07:34:23;;;;;;;18.37;3.23;;;8.40;99.90;;;;;;5077175;28;20499;-74
2022/03/17 07:36:51;;;;;;;10.27;2.23;;;8.40;99.90;;;;;;5108491;27;20130;-74
2022/03/17 07:39:17;;;;;;;16.47;2.60;;;8.40;99.90;;;;;;5076362;28;20047;-74
2022/03/17 07:41:42;;;;;;;15.80;2.70;;;8.50;99.90;;;;;;5094965;28;20047;-74
2022/03/17 07:44:09;;;;;;;9.50;2.30;;;8.40;99.90;;;;;;5084955;28;20078;-74
2022/03/17 07:46:58;;;;;;;11.20;2.13;;;8.40;99.90;;;;;;5086601;28;20103;-74
2022/03/17 07:49:35;;;;;;;10.30;2.13;;;8.40;99.90;;;;;;5105618;28;20036;-75
2022/03/17 07:52:01;;;;;;;14.27;2.00;;;8.40;99.90;;;;;;5069698;28;20046;-74
2022/03/17 07:54:27;;;;;;;14.50;2.20;;;8.40;99.90;;;;;;5090087;28;20682;-75
2022/03/17 07:56:54;;;;;;;12.57;3.40;;;8.50;99.90;;;;;;5111241;27;20043;-75
2022/03/17 07:59:21;;;;;;;13.77;2.40;;;8.40;99.90;;;;;;5076047;28;20043;-74
2022/03/17 08:01:46;;;;;;;11.20;2.37;;;8.40;99.90;;;;;;5064585;28;20059;-74
2022/03/17 08:04:12;;;;;;;17.20;3.77;;;8.40;99.90;;;;;;5112058;27;20051;-74
2022/03/17 08:06:38;;;;;;;14.50;2.37;;;8.40;99.90;;;;;;5074689;28;20100;-73
2022/03/17 08:09:04;;;;;;;12.23;2.13;;;8.40;99.90;;;;;;5088078;28;20071;-76
2022/03/17 08:11:30;;;;;;;14.10;2.37;;;8.40;99.90;;;;;;5061451;28;20047;-74
2022/03/17 08:13:55;;;;;;;13.30;1.87;;;8.40;99.90;;;;;;5071826;28;20520;-75
2022/03/17 08:16:22;;;;;;;15.17;2.23;;;8.40;99.90;;;;;;5076391;28;20039;-74
2022/03/17 08:18:49;;;;;;;16.57;1.83;;;8.40;99.90;;;;;;5079405;28;20043;-75
2022/03/17 08:21:16;;;;;;;16.43;2.30;;;8.50;99.90;;;;;;5098336;28;20055;-75
2022/03/17 08:23:41;;;;;;;14.10;2.30;;;8.40;99.90;;;;;;5098239;27;20191;-75
2022/03/17 08:26:07;;;;;;;15.00;2.43;;;8.50;99.90;;;;;;5080294;28;20063;-73
2022/03/17 08:28:33;;;;;;;12.30;2.13;;;8.50;99.90;;;;;;5095960;28;20044;-74
2022/03/17 08:30:59;;;;;;;14.57;2.60;;;8.50;99.90;;;;;;5082225;28;20110;-74
2022/03/17 08:33:26;;;;;;;15.70;2.70;;;8.50;99.90;;;;;;5100070;28;20036;-74
2022/03/17 08:35:52;;;;;;;12.67;1.80;;;8.50;99.90;;;;;;5102127;28;20119;-75
2022/03/17 08:38:18;;;;;;;15.27;2.27;;;8.50;99.90;;;;;;5101548;27;20112;-74
2022/03/17 08:40:44;;;;;;;15.97;2.47;;;8.50;99.90;;;;;;5124452;27;20039;-74
2022/03/17 08:43:10;;;;;;;16.07;2.70;;;8.50;99.90;;;;;;5077287;28;20486;-74
2022/03/17 08:51:10;;;;;;;15.03;2.80;;;8.60;99.90;;;;;;5095457;28;20067;-74
2022/03/17 08:53:36;;;;;;;16.17;2.80;;;8.60;99.90;;;;;;5094903;28;20043;-74
2022/03/17 08:56:03;;;;;;;12.70;2.30;;;8.60;99.90;;;;;;5092120;28;20038;-75
2022/03/17 08:58:29;;;;;;;21.20;2.40;;;8.60;99.90;;;;;;5113239;28;20099;-75
2022/03/17 09:00:54;;;;;;;17.97;2.87;;;8.60;99.90;;;;;;5096209;28;20078;-76
2022/03/17 09:03:24;;;;;;;12.00;2.10;;;8.50;99.90;;;;;;5079940;28;20700;-75
2022/03/17 09:05:50;;;;;;;15.70;2.13;;;8.60;99.90;;;;;;5093320;28;20109;-74
2022/03/17 09:08:17;;;;;;;12.37;2.00;;;8.40;99.90;;;;;;5073461;28;20538;-74
2022/03/17 09:10:43;;;;;;;13.90;2.50;;;8.40;99.90;;;;;;5094746;28;20059;-75
2022/03/17 09:13:13;;;;;;;15.27;2.47;;;8.40;99.90;;;;;;5115200;28;20415;-75
2022/03/17 09:15:41;;;;;;;18.03;2.47;;;8.40;99.90;;;;;;5094514;28;20040;-74
2022/03/17 09:18:08;;;;;;;20.90;2.77;;;8.40;99.90;;;;;;5067816;28;20039;-75
2022/03/17 09:20:34;;;;;;;17.40;2.60;;;8.50;99.90;;;;;;5122477;27;20039;-76
2022/03/17 09:23:01;;;;;;;16.47;2.53;;;8.70;99.90;;;;;;5095191;28;20051;-74
2022/03/17 09:25:29;;;;;;;14.17;2.23;;;8.80;99.90;;;;;;5091861;28;20069;-76
2022/03/17 09:27:56;;;;;;;15.10;2.57;;;9.00;99.90;;;;;;5113170;28;20043;-75
2022/03/17 09:30:22;;;;;;;14.27;2.57;;;9.20;99.90;;;;;;5094029;28;20066;-74
2022/03/17 09:32:52;;;;;;;15.90;3.07;;;9.20;99.90;;;;;;5085800;28;20101;-75
2022/03/17 09:35:18;;;;;;;19.43;3.03;;;9.20;99.90;;;;;;5088349;28;20070;-73
2022/03/17 09:37:45;;;;;;;21.07;2.67;;;9.10;99.90;;;;;;5097924;28;20052;-74
2022/03/17 09:40:11;;;;;;;17.63;3.13;;;9.10;99.90;;;;;;5099242;28;20040;-74
2022/03/17 09:42:38;;;;;;;17.87;2.93;;;9.00;99.90;;;;;;5098035;28;20096;-74
2022/03/17 09:45:09;;;;;;;13.57;2.53;;;9.00;99.90;;;;;;5116717;28;20461;-74
2022/03/17 09:47:36;;;;;;;17.60;2.67;;;9.00;99.90;;;;;;5081490;28;20046;-74
2022/03/17 09:50:03;;;;;;;12.43;2.33;;;9.00;99.90;;;;;;5082522;28;20043;-75
2022/03/17 09:52:31;;;;;;;12.77;2.57;;;9.00;99.90;;;;;;5099597;28;20051;-74
2022/03/17 09:54:57;;;;;;;14.17;3.03;;;9.10;99.90;;;;;;5070304;28;20047;-74
2022/03/17 09:57:23;;;;;;;13.23;2.50;;;9.10;99.90;;;;;;5120445;28;20061;-74
2022/03/17 09:59:56;;;;;;;14.73;2.57;;;9.20;99.90;;;;;;5101312;28;20055;-74
2022/03/17 10:02:23;;;;;;;12.03;2.53;;;9.30;99.90;;;;;;5120326;28;20039;-74
2022/03/17 10:04:49;;;;;;;14.37;2.30;;;9.30;99.90;;;;;;5082066;28;20403;-75
2022/03/17 10:07:18;;;;;;;11.63;2.30;;;9.30;99.90;;;;;;5136365;27;20046;-73
2022/03/17 10:09:45;;;;;;;18.23;2.57;;;9.30;99.90;;;;;;5087506;28;20043;-74
2022/03/17 10:12:12;;;;;;;19.20;2.90;;;9.30;99.90;;;;;;5069243;28;20049;-74
2022/03/17 10:14:40;;;;;;;16.43;2.73;;;9.40;99.90;;;;;;5102136;28;20502;-74
2022/03/17 10:17:28;;;;;;;15.27;2.67;;;9.60;99.90;;;;;;5102172;28;20095;-75
2022/03/17 10:20:14;;;;;;;16.17;2.60;;;9.80;99.90;;;;;;5133486;27;20069;-74
2022/03/17 10:22:45;;;;;;;10.33;2.30;;;10.00;99.90;;;;;;5083687;28;20044;-74
2022/03/17 10:25:12;;;;;;;12.87;2.73;;;10.20;99.90;;;;;;5099788;28;20055;-75
2022/03/17 10:27:40;;;;;;;14.27;2.00;;;10.30;99.90;;;;;;5100971;28;20048;-73
2022/03/17 10:30:07;;;;;;;14.60;1.97;;;10.50;99.90;;;;;;5050320;28;20036;-74
2022/03/17 10:32:36;;;;;;;13.90;2.27;;;11.60;99.90;;;;;;5100480;28;20043;-74
2022/03/17 10:35:02;;;;;;;9.10;1.87;;;12.60;99.90;;;;;;5110475;28;20514;-75
2022/03/17 10:37:30;;;;;;;9.13;2.17;;;13.20;99.90;;;;;;5121446;28;20043;-75
2022/03/17 10:39:57;;;;;;;10.07;1.93;;;13.30;99.90;;;;;;5103838;28;20043;-75
2022/03/17 10:42:26;;;;;;;11.93;2.50;;;14.00;99.90;;;;;;5122601;28;20503;-76
2022/03/17 10:44:55;;;;;;;9.73;2.33;;;14.60;99.90;;;;;;5120905;28;20036;-76
2022/03/17 10:47:25;;;;;;;9.53;2.40;;;15.70;99.90;;;;;;5119850;28;20065;-74
2022/03/17 10:50:01;;;;;;;10.10;1.73;;;16.70;99.90;;;;;;5103595;28;20043;-76
2022/03/17 10:52:45;;;;;;;13.03;2.03;;;17.40;99.40;;;;;;5103482;28;20097;-74
2022/03/17 10:55:12;;;;;;;7.90;2.15;;;17.20;98.00;;;;;;5088093;28;20075;-75
2022/03/17 10:57:38;;;;;;;9.23;1.83;;;17.70;98.00;;;;;;5069626;28;20047;-74
2022/03/17 11:00:09;;;;;;;11.27;2.10;;;17.80;95.60;;;;;;5086979;28;20035;-75
2022/03/17 11:02:39;;;;;;;7.43;2.17;;;17.50;95.40;;;;;;5085222;28;20095;-75
2022/03/17 11:05:10;;;;;;;13.47;2.37;;;17.40;93.80;;;;;;5101697;28;20118;-75
2022/03/17 11:07:37;;;;;;;10.00;2.43;;;17.80;92.90;;;;;;5102164;28;20058;-74
2022/03/17 11:10:05;;;;;;;9.07;2.10;;;18.20;91.20;;;;;;5086326;28;20075;-75
2022/03/17 11:12:31;;;;;;;7.37;2.10;;;18.20;92.00;;;;;;5105084;28;20043;-75
2022/03/17 11:14:57;;;;;;;10.27;2.20;;;18.80;91.90;;;;;;5103140;28;20056;-74
2022/03/17 11:17:28;;;;;;;11.77;2.07;;;19.20;91.00;;;;;;5086665;28;20510;-74
2022/03/17 11:19:58;;;;;;;8.73;2.43;;;19.70;91.00;;;;;;5052054;28;20052;-75
2022/03/17 11:22:29;;;;;;;10.03;1.90;;;20.20;89.60;;;;;;5083602;28;20045;-74
2022/03/17 11:25:19;;;;;;;9.27;2.30;;;20.40;85.30;;;;;;5083648;28;20052;-76
2022/03/17 11:27:46;;;;;;;12.93;2.47;;;19.80;84.50;;;;;;5088557;28;20044;-75
2022/03/17 11:30:13;;;;;;;8.57;2.00;;;19.40;79.90;;;;;;5086221;27;20067;-75
2022/03/17 11:32:49;;;;;;;8.23;2.40;;;18.70;80.20;;;;;;5103324;28;20461;-76
2022/03/17 11:35:17;;;;;;;7.90;2.27;;;18.30;84.10;;;;;;5103956;28;20131;-74
2022/03/17 11:37:44;;;;;;;10.97;2.33;;;18.70;82.60;;;;;;5103175;28;20093;-75
2022/03/17 11:40:13;;;;;;;9.90;2.10;;;19.10;78.30;;;;;;5120212;28;20104;-74
2022/03/17 11:42:47;;;;;;;11.37;2.77;;;19.30;78.40;;;;;;5101752;28;20050;-74
2022/03/17 11:45:37;;;;;;;9.25;1.90;;;19.60;73.30;;;;;;5097510;28;20679;-75
2022/03/17 11:48:09;;;;;;;8.10;2.10;;;19.20;73.40;;;;;;5101056;27;20067;-76
2022/03/17 11:50:40;;;;;;;11.80;2.47;;;19.40;74.10;;;;;;5082542;28;20050;-75
2022/03/17 11:53:17;;;;;;;10.93;2.77;;;19.50;74.00;;;;;;5079155;27;20036;-74
2022/03/17 11:55:49;;;;;;;11.50;2.43;;;19.70;73.10;;;;;;5129880;27;20051;-74
2022/03/17 11:58:30;;;;;;;8.47;2.40;;;20.10;72.10;;;;;;5095100;28;20066;-74
2022/03/17 12:01:05;;;;;;;10.90;2.37;;;20.00;66.10;;;;;;5091042;28;20107;-75
2022/03/17 12:03:32;;;;;;;12.90;2.53;;;19.50;66.40;;;;;;5102130;28;20096;-74
2022/03/17 12:06:12;;;;;;;10.77;2.13;;;18.70;68.00;;;;;;5070220;28;20086;-75
2022/03/17 12:08:43;;;;;;;11.83;2.40;;;18.50;71.20;;;;;;5121998;28;20044;-76
2022/03/17 12:11:11;;;;;;;11.57;2.60;;;18.50;73.30;;;;;;5103032;28;20054;-76
2022/03/17 12:13:37;;;;;;;11.23;2.60;;;18.10;74.90;;;;;;5087149;28;20045;-74
2022/03/17 12:16:04;;;;;;;10.67;2.30;;;18.10;76.10;;;;;;5102649;28;20071;-74
2022/03/17 12:19:03;;;;;;;14.97;2.97;;;18.00;75.80;;;;;;5069651;28;20103;-76
2022/03/17 12:22:02;;;;;;;10.90;2.27;;;17.80;74.90;;;;;;5082632;28;20073;-76
2022/03/17 12:24:47;;;;;;;12.17;2.37;;;17.40;75.50;;;;;;5081296;28;20082;-75
2022/03/17 12:27:19;;;;;;;11.93;2.33;;;17.60;76.90;;;;;;5101040;28;20056;-74
2022/03/17 12:29:47;;;;;;;6.93;2.20;;;17.70;74.10;;;;;;5068229;28;20092;-76
2022/03/17 12:32:17;;;;;;;10.10;2.20;;;17.60;74.70;;;;;;5104199;27;20039;-77
2022/03/17 12:34:45;;;;;;;9.37;1.97;;;17.90;73.80;;;;;;5080227;28;20047;-75
2022/03/17 12:37:12;;;;;;;7.43;1.87;;;17.80;71.90;;;;;;5125716;27;20051;-74
2022/03/17 12:39:40;;;;;;;10.30;2.47;;;18.00;72.70;;;;;;5083730;28;20039;-75
2022/03/17 12:42:27;;;;;;;10.23;2.13;;;17.80;72.00;;;;;;5101897;28;20388;-74
2022/03/17 12:44:56;;;;;;;7.53;2.10;;;17.20;71.40;;;;;;5087493;28;20043;-75
2022/03/17 12:47:26;;;;;;;9.40;2.17;;;16.40;72.30;;;;;;5121367;27;20044;-75
2022/03/17 12:49:53;;;;;;;9.30;2.63;;;15.80;74.30;;;;;;5091390;28;20035;-75
2022/03/17 12:52:21;;;;;;;10.97;2.23;;;15.80;75.90;;;;;;5081891;28;20074;-75
2022/03/17 12:54:52;;;;;;;14.47;2.60;;;16.20;76.90;;;;;;5088431;28;20127;-75